createdAt,value
2023-02-17T00:02:23.517Z,77.77
2023-02-17T00:04:50.532Z,78.73
2023-02-17T00:07:17.616Z,78.76
2023-02-17T00:09:44.536Z,79.73
2023-02-17T00:12:11.593Z,79.50
2023-02-17T00:14:41.664Z,79.33
2023-02-17T00:17:08.678Z,79.82
2023-02-17T00:19:35.770Z,79.03
2023-02-17T00:22:02.945Z,78.98
2023-02-17T00:24:31.407Z,78.94
2023-02-17T00:26:58.388Z,78.46
2023-02-17T00:29:26.342Z,77.70
2023-02-17T00:31:54.535Z,78.32
2023-02-17T00:34:23.537Z,78.36
2023-02-17T00:36:50.777Z,78.93
2023-02-17T00:39:18.274Z,78.25
2023-02-17T00:41:48.980Z,78.62
2023-02-17T00:44:20.340Z,78.98
2023-02-17T00:46:47.624Z,79.17
2023-02-17T00:49:16.249Z,79.72
2023-02-17T00:51:43.718Z,79.58
2023-02-17T00:54:10.896Z,79.80
2023-02-17T00:56:37.850Z,79.40
2023-02-17T00:59:04.888Z,79.32
2023-02-17T01:01:32.533Z,79.53
2023-02-17T01:03:59.883Z,79.20
2023-02-17T01:06:34.612Z,80.30
2023-02-17T01:09:01.735Z,79.89
2023-02-17T01:11:30.245Z,80.94
2023-02-17T01:13:58.784Z,80.55
2023-02-17T01:16:28.119Z,81.13
2023-02-17T01:18:55.253Z,81.24
2023-02-17T01:21:26.548Z,80.80
2023-02-17T01:23:54.490Z,80.22
2023-02-17T01:26:23.335Z,79.97
2023-02-17T01:28:50.963Z,80.88
2023-02-17T01:31:18.702Z,80.80
2023-02-17T01:33:45.910Z,79.83
2023-02-17T01:36:15.951Z,79.36
2023-02-17T01:38:42.909Z,79.74
2023-02-17T01:41:10.362Z,80.06
2023-02-17T01:43:37.419Z,80.32
2023-02-17T01:46:06.372Z,80.36
2023-02-17T01:48:44.907Z,80.67
2023-02-17T01:51:23.982Z,80.81
2023-02-17T01:53:59.166Z,80.83
2023-02-17T01:56:26.726Z,81.11
2023-02-17T01:58:56.255Z,81.08
2023-02-17T02:01:23.584Z,80.52
2023-02-17T02:03:52.177Z,81.10
2023-02-17T02:06:21.182Z,80.80
2023-02-17T02:09:02.331Z,82.00
2023-02-17T02:11:29.683Z,82.11
2023-02-17T02:13:57.231Z,82.00
2023-02-17T02:16:24.928Z,82.00
2023-02-17T02:18:54.995Z,81.70
2023-02-17T02:21:41.121Z,81.72
2023-02-17T02:24:23.320Z,81.41
2023-02-17T02:27:07.515Z,81.46
2023-02-17T02:30:13.121Z,82.60
2023-02-17T02:32:40.107Z,82.55
2023-02-17T02:35:23.202Z,82.46
2023-02-17T02:38:02.438Z,82.66
2023-02-17T02:40:33.176Z,82.57
2023-02-17T02:43:01.872Z,83.45
2023-02-17T02:45:29.396Z,83.78
2023-02-17T02:47:57.781Z,83.28
2023-02-17T02:50:33.559Z,83.85
2023-02-17T02:53:12.931Z,84.49
2023-02-17T02:55:46.077Z,84.34
2023-02-17T02:58:13.193Z,85.09
2023-02-17T03:00:54.320Z,85.62
2023-02-17T03:03:29.901Z,86.47
2023-02-17T03:06:03.573Z,86.40
2023-02-17T03:08:36.594Z,86.70
2023-02-17T03:11:04.316Z,86.59
2023-02-17T03:13:39.695Z,86.37
2023-02-17T03:16:09.560Z,87.91
2023-02-17T03:18:36.730Z,87.10
2023-02-17T03:21:11.926Z,87.70
2023-02-17T03:23:39.091Z,87.06
2023-02-17T03:26:07.035Z,88.16
2023-02-17T03:28:34.224Z,88.74
2023-02-17T03:31:01.412Z,88.84
2023-02-17T03:33:28.854Z,89.11
2023-02-17T03:35:56.701Z,89.03
2023-02-17T03:38:23.910Z,89.83
2023-02-17T03:40:50.926Z,89.23
2023-02-17T03:43:18.213Z,89.06
2023-02-17T03:45:45.194Z,89.74
2023-02-17T03:48:12.527Z,89.29
2023-02-17T03:50:39.597Z,89.23
2023-02-17T03:53:06.667Z,89.37
2023-02-17T03:55:33.641Z,88.94
2023-02-17T03:58:00.969Z,89.40
2023-02-17T04:00:28.049Z,89.29
2023-02-17T04:02:57.213Z,88.99
2023-02-17T04:05:24.501Z,89.46
2023-02-17T04:07:52.412Z,89.30
2023-02-17T04:10:19.677Z,90.36
2023-02-17T04:12:46.676Z,90.14
2023-02-17T04:15:13.678Z,89.49
2023-02-17T04:17:40.824Z,89.78
2023-02-17T04:20:08.419Z,90.15
2023-02-17T04:22:35.322Z,90.04
2023-02-17T04:25:02.224Z,90.24
2023-02-17T04:27:30.396Z,90.61
2023-02-17T04:29:57.604Z,90.34
2023-02-17T04:32:24.707Z,90.72
2023-02-17T04:34:51.678Z,90.31
2023-02-17T04:37:18.647Z,90.87
2023-02-17T04:39:45.944Z,90.42
2023-02-17T04:42:13.053Z,90.58
2023-02-17T04:44:40.107Z,90.09
2023-02-17T04:47:07.138Z,90.01
2023-02-17T04:49:34.732Z,90.32
2023-02-17T04:52:01.932Z,90.44
2023-02-17T04:54:29.375Z,89.84
2023-02-17T04:56:56.510Z,90.26
2023-02-17T04:59:25.552Z,90.47
2023-02-17T05:01:52.651Z,90.02
2023-02-17T05:04:19.604Z,90.28
2023-02-17T05:06:47.341Z,90.76
2023-02-17T05:09:14.474Z,91.79
2023-02-17T05:11:41.852Z,92.49
2023-02-17T05:14:09.233Z,92.90
2023-02-17T05:16:36.364Z,93.02
2023-02-17T05:19:13.898Z,93.65
2023-02-17T05:21:41.369Z,93.95
2023-02-17T05:24:08.579Z,93.64
2023-02-17T05:26:35.938Z,93.25
2023-02-17T05:29:02.947Z,93.07
2023-02-17T05:34:10.922Z,91.63
2023-02-17T05:36:37.962Z,91.49
2023-02-17T05:39:04.984Z,92.17
2023-02-17T05:44:15.219Z,90.44
2023-02-17T05:46:42.297Z,91.02
2023-02-17T05:49:09.492Z,91.00
2023-02-17T05:51:36.877Z,89.88
2023-02-17T05:54:03.863Z,89.93
2023-02-17T05:56:30.887Z,90.28
2023-02-17T05:58:58.074Z,90.88
2023-02-17T06:01:26.724Z,90.49
2023-02-17T06:03:53.887Z,91.28
2023-02-17T06:06:22.154Z,90.75
2023-02-17T06:08:49.185Z,90.08
2023-02-17T06:11:16.629Z,90.19
2023-02-17T06:13:43.664Z,90.70
2023-02-17T06:16:11.024Z,90.43
2023-02-17T06:18:38.172Z,90.18
2023-02-17T06:21:06.649Z,90.55
2023-02-17T06:23:33.682Z,90.27
2023-02-17T06:26:00.699Z,90.06
2023-02-17T06:28:27.776Z,89.41
2023-02-17T06:30:54.880Z,89.42
2023-02-17T06:33:21.902Z,88.80
2023-02-17T06:35:52.445Z,89.73
2023-02-17T06:38:19.851Z,89.83
2023-02-17T06:40:47.228Z,88.62
2023-02-17T06:43:14.330Z,88.46
2023-02-17T06:45:41.428Z,88.23
2023-02-17T06:48:08.688Z,87.90
2023-02-17T06:50:36.072Z,87.95
2023-02-17T06:53:03.179Z,87.72
2023-02-17T06:55:31.154Z,87.75
2023-02-17T06:58:17.746Z,87.10
2023-02-17T07:00:44.669Z,87.61
2023-02-17T07:03:11.843Z,88.17
2023-02-17T07:05:40.422Z,87.41
2023-02-17T07:08:07.494Z,86.89
2023-02-17T07:10:34.620Z,87.46
2023-02-17T07:13:06.793Z,86.51
2023-02-17T07:15:33.710Z,86.71
2023-02-17T07:18:01.751Z,86.43
2023-02-17T07:20:28.734Z,87.03
2023-02-17T07:22:55.826Z,84.41
2023-02-17T07:25:22.979Z,83.83
2023-02-17T07:27:50.212Z,82.91
2023-02-17T07:30:17.843Z,82.02
2023-02-17T07:32:44.932Z,81.13
2023-02-17T07:35:12.138Z,80.09
2023-02-17T07:37:39.677Z,79.89
2023-02-17T07:40:09.970Z,79.45
2023-02-17T07:42:40.263Z,79.67
2023-02-17T07:45:07.418Z,79.68
2023-02-17T07:47:34.644Z,79.89
2023-02-17T07:50:01.618Z,79.57
2023-02-17T07:52:32.666Z,78.96
2023-02-17T07:55:00.009Z,79.09
2023-02-17T07:57:27.348Z,79.39
2023-02-17T07:59:54.765Z,78.83
2023-02-17T08:02:22.138Z,78.39
2023-02-17T08:04:49.619Z,77.62
2023-02-17T08:07:22.313Z,77.40
2023-02-17T08:10:10.835Z,77.54
2023-02-17T08:12:56.934Z,77.47
2023-02-17T08:15:26.291Z,77.71
2023-02-17T08:17:54.454Z,77.94
2023-02-17T08:23:05.266Z,77.09
2023-02-17T08:25:37.546Z,78.17
2023-02-17T08:28:10.024Z,78.40
2023-02-17T08:30:43.750Z,78.17
2023-02-17T08:33:11.573Z,78.74
2023-02-17T08:35:38.581Z,78.32
2023-02-17T08:38:08.967Z,78.85
2023-02-17T08:40:36.243Z,79.09
2023-02-17T08:43:03.865Z,78.44
2023-02-17T08:45:32.922Z,78.70
2023-02-17T08:48:00.705Z,78.48
2023-02-17T08:50:28.212Z,77.67
2023-02-17T08:52:56.916Z,77.71
2023-02-17T08:58:05.874Z,78.44
2023-02-17T09:00:33.708Z,79.37
2023-02-17T09:03:01.935Z,79.16
2023-02-17T09:05:29.330Z,79.85
2023-02-17T09:07:56.532Z,80.53
2023-02-17T09:13:07.207Z,81.63
2023-02-17T09:15:34.907Z,81.62
2023-02-17T09:18:04.870Z,80.69
2023-02-17T09:20:32.023Z,79.76
2023-02-17T09:22:59.665Z,80.95
2023-02-17T09:25:27.207Z,80.70
2023-02-17T09:27:59.521Z,80.61
2023-02-17T09:30:27.068Z,79.88
2023-02-17T09:35:38.306Z,78.42
2023-02-17T09:38:11.816Z,78.77
2023-02-17T09:40:43.905Z,77.03
2023-02-17T09:46:07.606Z,76.40
2023-02-17T09:48:35.625Z,76.15
2023-02-17T09:51:10.966Z,76.05
2023-02-17T09:53:49.093Z,76.14
2023-02-17T09:56:23.575Z,75.67
2023-02-17T09:58:54.860Z,76.22
2023-02-17T10:01:24.502Z,75.57
2023-02-17T10:03:52.202Z,75.91
2023-02-17T10:06:25.058Z,75.36
2023-02-17T10:09:10.676Z,74.67
2023-02-17T10:11:39.124Z,74.29
2023-02-17T10:14:22.418Z,74.87
2023-02-17T10:16:52.548Z,74.65
2023-02-17T10:22:11.686Z,74.61
2023-02-17T10:24:39.496Z,73.97
2023-02-17T10:27:12.177Z,73.91
2023-02-17T10:29:43.366Z,73.35
2023-02-17T10:32:32.661Z,73.94
2023-02-17T10:35:06.388Z,73.86
2023-02-17T10:40:19.854Z,74.81
2023-02-17T10:42:48.406Z,74.43
2023-02-17T10:48:36.183Z,74.53
2023-02-17T10:53:48.055Z,75.57
2023-02-17T10:56:17.844Z,76.03
2023-02-17T10:59:01.023Z,75.87
2023-02-17T11:01:28.601Z,76.74
2023-02-17T11:06:50.113Z,76.76
2023-02-17T11:09:42.810Z,77.05
2023-02-17T11:12:15.065Z,77.06
2023-02-17T11:14:46.620Z,76.93
2023-02-17T11:17:33.872Z,77.75
2023-02-17T11:20:05.073Z,79.50
2023-02-17T11:22:33.066Z,80.39
2023-02-17T11:25:01.053Z,80.24
2023-02-17T11:27:28.186Z,80.16
2023-02-17T11:30:05.882Z,78.46
2023-02-17T11:32:35.776Z,78.59
2023-02-17T11:35:16.648Z,78.50
2023-02-17T11:37:45.296Z,77.17
2023-02-17T11:40:32.567Z,76.95
2023-02-17T11:43:03.507Z,77.16
2023-02-17T11:45:41.871Z,76.41
2023-02-17T11:48:28.228Z,76.58
2023-02-17T11:51:23.997Z,76.56
2023-02-17T11:53:58.543Z,76.90
2023-02-17T11:56:30.148Z,77.12
2023-02-17T11:59:15.756Z,77.38
2023-02-17T12:02:21.889Z,77.85
2023-02-17T12:04:53.591Z,76.95
2023-02-17T12:07:39.844Z,77.95
2023-02-17T12:10:38.949Z,77.58
2023-02-17T12:13:06.350Z,77.28
2023-02-17T12:15:59.443Z,77.89
2023-02-17T12:18:35.625Z,77.99
2023-02-17T12:21:05.765Z,77.84
2023-02-17T12:23:38.945Z,77.57
2023-02-17T12:26:24.553Z,77.17
2023-02-17T12:29:02.219Z,77.42
2023-02-17T12:31:49.881Z,76.91
2023-02-17T12:34:30.551Z,75.74
2023-02-17T12:37:00.107Z,76.05
2023-02-17T12:39:46.570Z,76.82
2023-02-17T12:42:38.925Z,76.86
2023-02-17T12:45:21.332Z,77.38
2023-02-17T12:47:54.948Z,76.88
2023-02-17T12:50:27.405Z,77.45
2023-02-17T12:52:57.909Z,78.35
2023-02-17T12:55:32.779Z,77.50
2023-02-17T12:58:07.890Z,77.43
2023-02-17T13:00:37.711Z,76.70
2023-02-17T13:03:06.905Z,76.55
2023-02-17T13:05:36.988Z,76.35
2023-02-17T13:08:10.457Z,76.75
2023-02-17T13:10:39.391Z,76.27
2023-02-17T13:13:12.724Z,76.39
2023-02-17T13:15:39.730Z,76.11
2023-02-17T13:18:11.663Z,76.08
2023-02-17T13:20:54.214Z,75.98
2023-02-17T13:23:39.570Z,76.04
2023-02-17T13:26:21.294Z,76.55
2023-02-17T13:28:49.356Z,75.81
2023-02-17T13:33:59.573Z,75.83
2023-02-17T13:36:29.800Z,76.21
2023-02-17T13:39:00.637Z,76.49
2023-02-17T13:41:56.066Z,77.15
2023-02-17T13:44:28.516Z,77.50
2023-02-17T13:46:58.810Z,76.63
2023-02-17T13:49:28.564Z,76.36
2023-02-17T13:52:07.214Z,76.04
2023-02-17T13:54:34.567Z,75.45
2023-02-17T13:59:42.802Z,76.87
2023-02-17T14:02:30.440Z,77.45
2023-02-17T14:05:06.898Z,77.57
2023-02-17T14:07:36.614Z,77.69
2023-02-17T14:10:03.976Z,77.99
2023-02-17T14:12:31.352Z,78.31
2023-02-17T14:14:59.277Z,77.58
2023-02-17T14:17:38.271Z,76.97
2023-02-17T14:20:07.463Z,77.11
2023-02-17T14:22:37.510Z,77.22
2023-02-17T14:25:05.292Z,76.63
2023-02-17T14:27:43.365Z,76.63
2023-02-17T14:30:15.294Z,77.01
2023-02-17T14:32:42.860Z,76.81
2023-02-17T14:35:30.735Z,76.42
2023-02-17T14:38:07.673Z,76.31
2023-02-17T14:43:22.513Z,76.86
2023-02-17T14:45:49.900Z,76.46
2023-02-17T14:48:16.934Z,76.47
2023-02-17T14:50:45.524Z,77.10
2023-02-17T14:53:27.602Z,77.01
2023-02-17T14:56:09.015Z,76.89
2023-02-17T14:58:36.288Z,76.31
2023-02-17T15:01:04.080Z,76.58
2023-02-17T15:03:31.207Z,76.36
2023-02-17T15:06:00.681Z,76.89
2023-02-17T15:08:35.408Z,77.10
2023-02-17T15:11:03.342Z,77.28
2023-02-17T15:13:32.069Z,77.13
2023-02-17T15:16:00.282Z,77.44
2023-02-17T15:18:28.273Z,77.28
2023-02-17T15:23:36.934Z,77.51
2023-02-17T15:29:22.105Z,78.63
2023-02-17T15:34:34.338Z,78.85
2023-02-17T15:37:02.193Z,78.96
2023-02-17T15:39:31.381Z,79.06
2023-02-17T15:42:00.898Z,79.07
2023-02-17T15:47:18.276Z,79.36
2023-02-17T15:49:45.884Z,79.45
2023-02-17T15:52:13.690Z,79.33
2023-02-17T15:54:41.625Z,79.87
2023-02-17T16:02:37.159Z,78.88
2023-02-17T16:05:04.640Z,79.03
2023-02-17T16:07:31.713Z,78.97
2023-02-17T16:12:41.952Z,79.15
2023-02-17T16:18:05.060Z,79.07
2023-02-17T16:23:16.064Z,79.23
2023-02-17T16:25:45.005Z,80.24
2023-02-17T16:28:22.201Z,80.00
2023-02-17T16:30:50.556Z,79.42
2023-02-17T16:33:20.546Z,79.35
2023-02-17T16:35:53.484Z,79.77
2023-02-17T16:41:14.415Z,79.86
2023-02-17T16:46:31.327Z,79.88
2023-02-17T16:48:59.888Z,79.63
2023-02-17T16:51:29.796Z,79.43
2023-02-17T16:53:57.834Z,79.56
2023-02-17T16:59:16.592Z,79.88
2023-02-17T17:01:52.051Z,80.56
2023-02-17T17:07:04.205Z,80.38
2023-02-17T17:24:03.220Z,80.71
2023-02-17T17:38:26.769Z,81.17
2023-02-17T17:46:31.130Z,81.40
2023-02-17T17:49:01.856Z,81.15
2023-02-17T17:59:51.716Z,83.23
2023-02-17T18:02:23.165Z,83.44
2023-02-17T18:53:21.653Z,85.88
2023-02-17T19:01:28.047Z,86.22
2023-02-17T19:06:40.052Z,86.75
2023-02-17T19:48:48.284Z,88.34
2023-02-17T19:51:15.909Z,88.72
2023-02-17T19:53:44.076Z,88.73
2023-02-17T19:56:16.545Z,89.44
2023-02-17T20:06:58.763Z,90.44
2023-02-17T20:09:26.300Z,90.31
2023-02-17T20:11:53.717Z,90.31
2023-02-17T20:14:21.592Z,90.31
2023-02-17T20:19:46.484Z,89.99
2023-02-17T20:22:13.773Z,89.89
2023-02-17T20:24:43.256Z,89.88
2023-02-17T20:27:11.188Z,90.47
2023-02-17T20:29:38.241Z,89.75
2023-02-17T20:32:07.052Z,89.84
2023-02-17T20:34:38.666Z,90.31
2023-02-17T20:37:07.009Z,90.24
2023-02-17T20:39:36.201Z,90.34
2023-02-17T20:42:03.964Z,90.60
2023-02-17T20:44:31.272Z,90.11
2023-02-17T20:46:58.804Z,90.38
2023-02-17T20:49:27.203Z,90.75
2023-02-17T20:51:54.273Z,90.19
2023-02-17T20:54:21.268Z,90.36
2023-02-17T20:56:51.073Z,90.48
2023-02-17T20:59:18.120Z,90.83
2023-02-17T21:01:45.948Z,90.50
2023-02-17T21:04:14.328Z,90.62
2023-02-17T21:06:43.178Z,90.52
2023-02-17T21:09:15.576Z,90.99
2023-02-17T21:11:43.110Z,90.96
2023-02-17T21:14:10.619Z,91.12
2023-02-17T21:16:37.956Z,90.97
2023-02-17T21:19:05.561Z,91.37
2023-02-17T21:21:32.679Z,91.33
2023-02-17T21:24:00.044Z,91.00
2023-02-17T21:26:27.748Z,91.12
2023-02-17T21:28:55.306Z,91.33
2023-02-17T21:31:22.699Z,90.58
2023-02-17T21:33:49.915Z,91.54
2023-02-17T21:36:18.482Z,91.60
2023-02-17T21:38:46.645Z,91.90
2023-02-17T21:41:15.194Z,92.11
2023-02-17T21:44:00.828Z,91.65
2023-02-17T21:46:28.892Z,91.68
2023-02-17T21:48:57.180Z,91.74
2023-02-17T21:51:24.792Z,91.75
2023-02-17T21:53:52.906Z,92.32
2023-02-17T21:56:20.908Z,91.98
2023-02-17T21:58:52.503Z,92.00
2023-02-17T22:01:20.220Z,91.62
2023-02-17T22:03:47.296Z,91.67
2023-02-17T22:06:15.314Z,92.04
2023-02-17T22:08:42.417Z,92.29
2023-02-17T22:11:16.663Z,92.11
2023-02-17T22:13:44.023Z,92.07
2023-02-17T22:16:11.569Z,91.99
2023-02-17T22:18:38.749Z,92.36
2023-02-17T22:23:53.822Z,92.04
2023-02-17T22:26:22.109Z,92.18
2023-02-17T22:28:49.504Z,92.61
2023-02-17T22:31:18.013Z,93.00
2023-02-17T22:33:45.422Z,92.88
2023-02-17T22:36:17.302Z,92.69
2023-02-17T22:38:44.978Z,92.75
2023-02-17T22:41:13.799Z,93.30
2023-02-17T22:43:42.926Z,92.96
2023-02-17T22:46:11.045Z,92.69
2023-02-17T22:48:39.098Z,92.65
2023-02-17T22:51:07.164Z,92.66
2023-02-17T22:53:35.140Z,92.80
2023-02-17T22:56:02.710Z,91.94
2023-02-17T22:58:30.214Z,92.92
2023-02-17T23:01:06.550Z,92.36
2023-02-17T23:03:33.848Z,91.72
2023-02-17T23:06:01.666Z,92.07
2023-02-17T23:08:28.978Z,92.23
2023-02-17T23:10:56.226Z,92.63
2023-02-17T23:13:23.296Z,92.28
2023-02-17T23:15:50.356Z,92.68
2023-02-17T23:18:18.780Z,92.81
2023-02-17T23:20:47.125Z,92.66
2023-02-17T23:23:14.246Z,92.72
2023-02-17T23:25:54.827Z,93.24
2023-02-17T23:28:23.221Z,93.28
2023-02-17T23:30:50.570Z,92.87
2023-02-17T23:33:18.756Z,93.27
2023-02-17T23:35:46.208Z,92.56
2023-02-17T23:38:13.994Z,92.67
2023-02-17T23:40:41.435Z,92.90
2023-02-17T23:43:08.950Z,92.32
2023-02-17T23:45:37.776Z,91.94
2023-02-17T23:48:05.937Z,91.30
2023-02-17T23:50:33.300Z,91.55
2023-02-17T23:53:00.242Z,91.17
2023-02-17T23:55:27.410Z,91.04
2023-02-17T23:57:54.411Z,91.74
